Time;durP1;ratioP1;P1;durP2;ratioP2;P2;SDS_P1;SDS_P2;PMS_P1;PMS_P2;Temp;Humidity;BMP_temperature;BMP_pressure;BME280_temperature;BME280_humidity;BME280_pressure;Samples;Min_cycle;Max_cycle;Signal;HPM_P1;HPM_P2
2021/11/25 00:01:05;;;;;;;19.17;12.63;;;7.40;83.60;;;;;;5049773;28;20214;-70
2021/11/25 00:03:33;;;;;;;19.10;12.90;;;7.50;83.70;;;;;;5047890;28;20222;-70
2021/11/25 00:06:00;;;;;;;20.07;12.70;;;7.50;83.50;;;;;;5049244;28;20543;-70
2021/11/25 00:08:27;;;;;;;16.93;12.27;;;7.50;83.60;;;;;;5032492;28;20692;-70
2021/11/25 00:10:54;;;;;;;18.30;12.90;;;7.50;83.80;;;;;;5032170;28;20222;-70
2021/11/25 00:13:21;;;;;;;18.70;12.00;;;7.60;84.00;;;;;;5032337;28;20219;-70
2021/11/25 00:15:49;;;;;;;17.13;12.37;;;7.50;83.80;;;;;;5034041;28;20215;-70
2021/11/25 00:18:18;;;;;;;18.67;12.00;;;7.60;83.80;;;;;;5047066;28;20214;-70
2021/11/25 00:20:46;;;;;;;17.37;12.27;;;7.60;84.00;;;;;;5034534;28;20222;-70
2021/11/25 00:23:13;;;;;;;20.17;12.43;;;7.60;84.10;;;;;;5035196;28;20211;-70
2021/11/25 00:25:40;;;;;;;18.43;11.93;;;7.60;84.00;;;;;;5047046;28;20219;-70
2021/11/25 00:28:07;;;;;;;16.90;11.63;;;7.60;83.60;;;;;;5033213;28;20269;-70
2021/11/25 00:30:35;;;;;;;20.00;12.63;;;7.60;83.30;;;;;;5036179;28;20203;-70
2021/11/25 00:33:03;;;;;;;20.77;12.70;;;7.60;83.00;;;;;;5036548;28;20237;-70
2021/11/25 00:35:30;;;;;;;14.53;10.70;;;7.60;82.70;;;;;;5037775;28;20218;-70
2021/11/25 00:37:57;;;;;;;19.43;11.60;;;7.60;82.40;;;;;;5041172;28;20222;-70
2021/11/25 00:40:24;;;;;;;16.97;11.87;;;7.70;82.60;;;;;;5042565;28;20230;-70
2021/11/25 00:42:51;;;;;;;14.97;10.97;;;7.70;82.70;;;;;;5043478;28;20671;-70
2021/11/25 00:45:19;;;;;;;19.33;11.73;;;7.60;82.80;;;;;;5042078;28;20218;-70
2021/11/25 00:47:46;;;;;;;20.97;11.77;;;7.60;83.00;;;;;;5036814;28;20238;-70
2021/11/25 00:50:16;;;;;;;17.03;10.77;;;7.70;83.40;;;;;;5040753;28;20213;-70
2021/11/25 00:52:43;;;;;;;20.77;12.13;;;7.70;83.50;;;;;;5042883;28;20206;-70
2021/11/25 00:55:11;;;;;;;18.30;12.03;;;7.70;83.40;;;;;;5041904;28;20246;-70
2021/11/25 00:57:38;;;;;;;20.17;12.03;;;7.70;83.30;;;;;;5043267;28;20210;-70
2021/11/25 01:00:09;;;;;;;16.60;11.37;;;7.70;83.40;;;;;;5044360;28;20222;-70
2021/11/25 01:02:36;;;;;;;18.57;12.43;;;7.60;83.50;;;;;;5042026;28;20218;-70
2021/11/25 01:05:04;;;;;;;17.23;11.67;;;7.50;83.60;;;;;;5047660;28;20218;-70
2021/11/25 01:07:32;;;;;;;15.87;10.97;;;7.50;84.00;;;;;;5044503;28;20246;-70
2021/11/25 01:10:00;;;;;;;18.30;12.00;;;7.60;84.20;;;;;;5049434;28;20210;-70
2021/11/25 01:12:28;;;;;;;21.17;11.83;;;7.60;84.40;;;;;;5050232;28;20222;-70
2021/11/25 01:14:55;;;;;;;17.67;12.23;;;7.60;84.40;;;;;;5039437;28;20253;-70
2021/11/25 01:17:22;;;;;;;17.43;13.17;;;7.60;84.50;;;;;;5043570;28;20214;-70
2021/11/25 01:19:50;;;;;;;17.07;12.13;;;7.60;84.30;;;;;;5038012;28;20219;-70
2021/11/25 01:22:17;;;;;;;21.10;12.87;;;7.60;84.10;;;;;;5052578;28;20214;-70
2021/11/25 01:24:45;;;;;;;25.37;13.20;;;7.60;84.10;;;;;;5043103;28;20222;-70
2021/11/25 01:27:12;;;;;;;19.93;13.53;;;7.60;84.00;;;;;;5043163;28;20731;-70
2021/11/25 01:29:39;;;;;;;19.53;12.87;;;7.70;84.20;;;;;;5036656;28;20276;-70
2021/11/25 01:32:06;;;;;;;19.23;13.93;;;7.70;83.80;;;;;;5035325;28;20226;-70
2021/11/25 01:34:34;;;;;;;21.80;13.37;;;7.70;83.30;;;;;;5036320;28;20284;-70
2021/11/25 01:37:01;;;;;;;25.23;15.10;;;7.70;83.00;;;;;;5036224;28;20280;-70
2021/11/25 01:39:28;;;;;;;18.70;13.87;;;7.70;83.30;;;;;;5043024;28;20285;-70
2021/11/25 01:41:56;;;;;;;19.40;14.23;;;7.70;83.40;;;;;;5034217;28;20223;-70
2021/11/25 01:44:23;;;;;;;22.67;13.97;;;7.70;83.50;;;;;;5036695;28;20624;-70
2021/11/25 01:46:50;;;;;;;21.40;13.37;;;7.70;83.40;;;;;;5037669;28;20258;-70
2021/11/25 01:49:17;;;;;;;22.17;15.13;;;7.70;83.50;;;;;;5043121;28;20221;-70
2021/11/25 01:51:44;;;;;;;23.50;14.33;;;7.70;83.50;;;;;;5049241;28;20527;-70
2021/11/25 01:54:11;;;;;;;26.97;14.13;;;7.80;83.60;;;;;;5063968;28;20546;-70
2021/11/25 01:56:38;;;;;;;25.17;14.93;;;7.80;84.30;;;;;;5040298;28;20229;-70
2021/11/25 01:59:05;;;;;;;20.00;12.53;;;7.80;83.70;;;;;;5046319;28;20219;-70
2021/11/25 02:01:35;;;;;;;18.03;12.90;;;7.80;83.80;;;;;;5038787;28;20525;-70
2021/11/25 02:04:05;;;;;;;18.63;12.10;;;7.80;83.90;;;;;;5042659;28;20229;-69
2021/11/25 02:06:38;;;;;;;19.20;13.27;;;7.90;83.90;;;;;;5041224;28;20287;-70
2021/11/25 02:09:06;;;;;;;21.20;14.00;;;7.90;83.80;;;;;;5042860;28;20295;-70
2021/11/25 02:11:34;;;;;;;22.60;13.83;;;7.80;83.30;;;;;;5043803;28;20217;-70
2021/11/25 02:14:01;;;;;;;26.90;13.90;;;7.80;82.60;;;;;;5041348;28;20221;-70
2021/11/25 02:16:28;;;;;;;20.97;13.73;;;7.70;82.20;;;;;;5056980;28;20215;-70
2021/11/25 02:18:59;;;;;;;19.77;13.37;;;7.70;82.40;;;;;;5042130;28;20657;-70
2021/11/25 02:21:29;;;;;;;21.27;13.50;;;7.70;82.30;;;;;;5037605;28;20230;-70
2021/11/25 02:23:56;;;;;;;18.97;13.23;;;7.70;81.80;;;;;;5039727;28;20217;-70
2021/11/25 02:26:25;;;;;;;18.60;13.00;;;7.60;80.80;;;;;;5037653;28;20741;-70
2021/11/25 02:28:52;;;;;;;19.03;13.67;;;7.60;81.00;;;;;;5047395;28;20295;-70
2021/11/25 02:31:20;;;;;;;17.87;13.60;;;7.60;81.20;;;;;;5045123;28;20283;-70
2021/11/25 02:33:47;;;;;;;21.83;13.50;;;7.60;81.10;;;;;;5035135;28;20211;-70
2021/11/25 02:36:15;;;;;;;21.07;13.63;;;7.60;80.90;;;;;;5040574;28;20215;-70
2021/11/25 02:38:42;;;;;;;21.07;14.00;;;7.70;81.00;;;;;;5046839;28;20268;-70
2021/11/25 02:41:10;;;;;;;21.87;14.13;;;7.70;81.10;;;;;;5035652;28;20210;-70
2021/11/25 02:43:37;;;;;;;24.83;13.83;;;7.70;81.00;;;;;;5035142;28;20273;-70
2021/11/25 02:46:10;;;;;;;18.13;13.33;;;7.80;80.60;;;;;;5037693;28;20207;-70
2021/11/25 02:48:44;;;;;;;20.73;14.43;;;7.70;80.60;;;;;;5036070;28;20221;-70
2021/11/25 02:51:15;;;;;;;17.17;12.33;;;7.70;80.50;;;;;;5053444;28;20217;-70
2021/11/25 02:53:43;;;;;;;19.97;13.50;;;7.70;79.80;;;;;;5034458;28;20947;-70
2021/11/25 02:56:13;;;;;;;20.80;13.67;;;7.80;79.70;;;;;;5027329;28;20245;-70
2021/11/25 02:58:41;;;;;;;23.70;13.53;;;7.70;79.50;;;;;;5047331;28;20271;-70
2021/11/25 03:01:18;;;;;;;20.23;13.70;;;7.70;79.40;;;;;;5035611;28;20218;-70
2021/11/25 03:03:47;;;;;;;22.10;13.43;;;7.70;79.40;;;;;;5044553;28;20203;-70
2021/11/25 03:06:14;;;;;;;17.47;13.87;;;7.70;78.90;;;;;;5033779;28;20666;-70
2021/11/25 03:08:42;;;;;;;18.30;13.30;;;7.70;78.90;;;;;;5037140;28;20269;-70
2021/11/25 03:11:12;;;;;;;24.30;14.07;;;7.80;79.30;;;;;;5042984;28;20222;-70
2021/11/25 03:13:43;;;;;;;20.50;13.63;;;7.80;79.80;;;;;;5043765;28;20211;-70
2021/11/25 03:16:13;;;;;;;20.07;13.33;;;7.80;80.10;;;;;;5042903;28;20211;-70
2021/11/25 03:18:41;;;;;;;24.60;15.00;;;7.80;80.40;;;;;;5042569;28;20228;-70
2021/11/25 03:21:09;;;;;;;26.03;14.77;;;7.80;80.50;;;;;;5040801;28;20265;-70
2021/11/25 03:23:38;;;;;;;24.03;14.20;;;7.90;80.50;;;;;;5043497;28;20666;-70
2021/11/25 03:26:07;;;;;;;23.17;13.40;;;7.90;80.30;;;;;;5040508;28;20219;-70
2021/11/25 03:28:38;;;;;;;17.73;13.43;;;7.90;79.80;;;;;;5041456;28;20253;-70
2021/11/25 03:31:05;;;;;;;21.27;13.43;;;7.90;79.90;;;;;;5042326;28;20229;-70
2021/11/25 03:33:33;;;;;;;18.33;14.20;;;7.90;79.80;;;;;;5041533;28;20203;-70
2021/11/25 03:36:03;;;;;;;21.97;13.97;;;7.90;79.60;;;;;;5043622;28;20211;-70
2021/11/25 03:38:30;;;;;;;20.80;14.57;;;7.80;79.80;;;;;;5039730;28;20272;-69
2021/11/25 03:40:57;;;;;;;18.77;14.20;;;7.80;79.90;;;;;;5040002;28;20237;-69
2021/11/25 03:43:25;;;;;;;20.83;15.17;;;7.80;79.40;;;;;;5038375;28;20219;-69
2021/11/25 03:45:53;;;;;;;20.27;14.83;;;7.80;79.50;;;;;;5038336;28;20206;-69
2021/11/25 03:48:23;;;;;;;21.87;15.00;;;7.80;79.50;;;;;;5037002;28;20243;-69
2021/11/25 03:50:51;;;;;;;22.77;14.47;;;7.80;79.50;;;;;;5046939;28;20222;-69
2021/11/25 03:53:18;;;;;;;21.63;14.63;;;7.70;79.90;;;;;;5034091;28;20211;-69
2021/11/25 03:55:45;;;;;;;23.47;14.67;;;7.70;80.30;;;;;;5034553;28;20683;-69
2021/11/25 03:58:12;;;;;;;21.13;14.70;;;7.70;80.30;;;;;;5033550;28;20224;-69
2021/11/25 04:00:39;;;;;;;25.57;16.57;;;7.70;80.50;;;;;;5033810;28;20277;-69
2021/11/25 04:03:06;;;;;;;18.50;14.37;;;7.60;80.80;;;;;;5034134;28;20601;-69
2021/11/25 04:05:33;;;;;;;19.83;15.07;;;7.60;81.10;;;;;;5032480;28;20237;-69
2021/11/25 04:08:01;;;;;;;25.63;15.47;;;7.60;81.30;;;;;;5032878;28;20329;-69
2021/11/25 04:10:29;;;;;;;23.13;14.67;;;7.70;81.40;;;;;;5032614;28;20514;-69
2021/11/25 04:12:56;;;;;;;22.03;15.00;;;7.70;81.70;;;;;;5032307;28;20284;-69
2021/11/25 04:15:23;;;;;;;19.57;14.43;;;7.70;81.80;;;;;;5032288;28;20268;-69
2021/11/25 04:17:50;;;;;;;21.87;15.03;;;7.70;81.80;;;;;;5033011;28;20208;-70
2021/11/25 04:20:17;;;;;;;22.83;15.70;;;7.80;81.80;;;;;;5033800;28;20222;-69
2021/11/25 04:22:45;;;;;;;20.53;14.13;;;7.80;81.50;;;;;;5035127;28;20218;-69
2021/11/25 04:25:13;;;;;;;21.90;14.97;;;7.80;81.10;;;;;;5047705;28;20218;-69
2021/11/25 04:27:41;;;;;;;23.50;14.83;;;7.80;81.00;;;;;;5041506;28;20241;-69
2021/11/25 04:30:47;;;;;;;21.83;14.63;;;7.80;81.10;;;;;;5066942;28;20215;-69
2021/11/25 04:35:44;;;;;;;21.07;15.43;;;7.80;81.80;;;;;;5048571;28;20284;-69
2021/11/25 04:38:16;;;;;;;19.93;14.07;;;7.80;81.80;;;;;;5049269;28;20244;-69
2021/11/25 04:40:49;;;;;;;21.93;14.17;;;7.80;81.50;;;;;;5045835;28;20222;-69
2021/11/25 04:43:18;;;;;;;22.30;14.67;;;7.80;81.20;;;;;;5044403;28;20218;-69
2021/11/25 04:45:47;;;;;;;23.83;14.10;;;7.90;81.10;;;;;;5044623;28;20218;-69
2021/11/25 04:48:16;;;;;;;21.17;13.73;;;7.80;81.00;;;;;;5044083;28;20329;-69
2021/11/25 04:50:44;;;;;;;20.60;13.87;;;7.80;81.00;;;;;;5044334;28;20599;-69
2021/11/25 04:53:12;;;;;;;23.07;14.13;;;7.80;81.80;;;;;;5046261;28;20215;-69
2021/11/25 04:55:41;;;;;;;19.43;14.53;;;7.80;80.90;;;;;;5047049;28;20221;-69
2021/11/25 04:58:08;;;;;;;16.93;13.07;;;7.80;80.90;;;;;;5043722;28;20211;-69
2021/11/25 05:00:36;;;;;;;20.37;13.67;;;7.70;81.00;;;;;;5042987;28;20225;-69
2021/11/25 05:03:03;;;;;;;20.20;13.40;;;7.70;81.10;;;;;;5048308;28;20225;-69
2021/11/25 05:05:30;;;;;;;20.10;13.60;;;7.70;80.90;;;;;;5046816;28;20270;-69
2021/11/25 05:07:57;;;;;;;18.00;14.20;;;7.70;81.10;;;;;;5047095;28;20249;-69
2021/11/25 05:10:24;;;;;;;20.70;13.70;;;7.70;81.30;;;;;;5050371;28;20245;-69
2021/11/25 05:12:51;;;;;;;22.30;14.37;;;7.70;81.20;;;;;;5039812;28;20218;-68
2021/11/25 05:15:19;;;;;;;23.20;14.07;;;7.70;81.00;;;;;;5048789;28;20682;-69
2021/11/25 05:17:46;;;;;;;16.93;13.03;;;7.70;81.10;;;;;;5045168;28;20283;-70
2021/11/25 05:20:14;;;;;;;19.27;14.43;;;7.80;81.30;;;;;;5050073;28;20215;-68
2021/11/25 05:22:42;;;;;;;16.70;13.33;;;7.80;81.60;;;;;;5060709;28;20223;-69
2021/11/25 05:25:13;;;;;;;20.53;14.20;;;7.80;81.60;;;;;;5043079;28;20211;-69
2021/11/25 05:27:40;;;;;;;18.27;13.27;;;7.80;81.60;;;;;;5036431;28;20568;-69
2021/11/25 05:30:09;;;;;;;18.70;14.00;;;7.90;81.20;;;;;;5036251;28;20215;-69
2021/11/25 05:32:36;;;;;;;20.80;14.63;;;7.90;80.90;;;;;;5036685;28;20222;-69
2021/11/25 05:35:04;;;;;;;21.80;14.83;;;7.80;80.70;;;;;;5043174;28;20272;-69
2021/11/25 05:37:32;;;;;;;19.17;12.73;;;7.90;80.80;;;;;;5070093;28;20218;-69
2021/11/25 05:39:59;;;;;;;21.40;14.47;;;7.90;81.10;;;;;;5053235;28;20698;-69
2021/11/25 05:42:26;;;;;;;24.50;13.63;;;7.90;81.30;;;;;;5052816;28;20317;-69
2021/11/25 05:44:53;;;;;;;17.93;13.37;;;7.90;81.70;;;;;;5047137;28;20666;-70
2021/11/25 05:47:20;;;;;;;22.63;13.90;;;7.90;81.60;;;;;;5059470;28;20679;-69
2021/11/25 05:49:47;;;;;;;23.50;13.27;;;7.90;81.60;;;;;;5039403;28;20207;-69
2021/11/25 05:52:14;;;;;;;18.80;14.67;;;7.90;81.90;;;;;;5040866;28;20275;-69
2021/11/25 05:54:41;;;;;;;19.83;14.97;;;7.90;81.90;;;;;;5044841;28;20220;-69
2021/11/25 05:57:08;;;;;;;19.07;15.00;;;7.90;82.00;;;;;;5042669;28;20241;-69
2021/11/25 05:59:35;;;;;;;19.60;14.53;;;7.90;82.20;;;;;;5048634;28;20217;-69
2021/11/25 06:02:03;;;;;;;18.40;14.93;;;7.90;82.30;;;;;;5040480;28;20230;-69
2021/11/25 06:04:31;;;;;;;21.03;14.43;;;8.00;82.40;;;;;;5044369;28;20226;-69
2021/11/25 06:06:58;;;;;;;18.07;13.73;;;8.00;82.60;;;;;;5044681;28;20210;-69
2021/11/25 06:09:25;;;;;;;20.60;14.93;;;8.00;82.60;;;;;;5044403;28;20250;-69
2021/11/25 06:11:52;;;;;;;17.80;13.00;;;8.00;82.70;;;;;;5039788;28;20572;-69
2021/11/25 06:14:19;;;;;;;19.07;14.17;;;8.00;82.60;;;;;;5060260;28;20501;-69
2021/11/25 06:16:47;;;;;;;20.03;14.67;;;8.00;82.40;;;;;;5039787;28;20207;-69
2021/11/25 06:19:14;;;;;;;26.90;15.17;;;8.00;82.50;;;;;;5046282;28;20648;-69
2021/11/25 06:21:41;;;;;;;21.63;13.83;;;8.00;82.50;;;;;;5042474;28;20606;-69
2021/11/25 06:24:11;;;;;;;19.63;13.53;;;8.00;82.40;;;;;;5046470;28;20338;-69
2021/11/25 06:26:44;;;;;;;27.87;14.50;;;8.00;82.60;;;;;;5035816;28;20580;-69
2021/11/25 06:29:11;;;;;;;21.03;14.83;;;8.00;81.60;;;;;;5039106;28;20693;-70
2021/11/25 06:31:38;;;;;;;22.20;14.67;;;7.90;81.50;;;;;;5039160;28;20612;-70
2021/11/25 06:34:05;;;;;;;17.57;13.77;;;7.90;81.90;;;;;;5046528;28;20203;-70
2021/11/25 06:36:33;;;;;;;20.97;15.90;;;7.90;82.20;;;;;;5049456;28;20214;-70
2021/11/25 06:39:00;;;;;;;21.40;15.63;;;7.80;82.80;;;;;;5039042;28;20289;-70
2021/11/25 06:41:27;;;;;;;22.83;16.13;;;7.80;83.00;;;;;;5043486;28;20373;-70
2021/11/25 06:43:54;;;;;;;26.07;16.27;;;7.80;83.30;;;;;;5060226;28;20646;-70
2021/11/25 06:46:21;;;;;;;22.80;16.33;;;7.80;83.60;;;;;;5034378;28;20287;-70
2021/11/25 06:48:48;;;;;;;23.30;16.00;;;7.80;83.80;;;;;;5045565;28;20308;-69
2021/11/25 06:51:15;;;;;;;22.40;15.93;;;7.80;84.10;;;;;;5052687;28;20218;-69
2021/11/25 06:53:45;;;;;;;18.07;13.87;;;7.80;84.40;;;;;;5052544;28;20564;-69
2021/11/25 06:56:13;;;;;;;19.17;13.87;;;7.80;84.50;;;;;;5051465;28;20214;-69
2021/11/25 06:58:40;;;;;;;20.93;14.70;;;7.80;84.00;;;;;;5066662;28;20222;-69
2021/11/25 07:01:08;;;;;;;22.53;15.37;;;7.80;83.60;;;;;;5065675;28;20214;-69
2021/11/25 07:03:35;;;;;;;20.27;15.40;;;7.80;83.90;;;;;;5060781;28;20549;-70
2021/11/25 07:06:03;;;;;;;20.40;14.60;;;7.80;84.30;;;;;;5036002;28;20241;-69
2021/11/25 07:08:31;;;;;;;18.37;15.03;;;7.80;84.80;;;;;;5042042;28;20246;-69
2021/11/25 07:10:58;;;;;;;22.20;15.13;;;7.80;85.30;;;;;;5047102;28;20222;-69
2021/11/25 07:13:27;;;;;;;19.40;14.67;;;7.90;85.70;;;;;;5036968;28;20206;-69
2021/11/25 07:15:54;;;;;;;22.73;15.83;;;7.90;85.70;;;;;;5046312;28;20218;-69
2021/11/25 07:18:22;;;;;;;22.90;14.43;;;7.90;85.90;;;;;;5040001;28;20213;-69
2021/11/25 07:20:49;;;;;;;22.00;15.63;;;7.80;85.90;;;;;;5040154;28;20214;-69
2021/11/25 07:23:16;;;;;;;20.20;14.53;;;7.80;86.00;;;;;;5042373;28;20222;-69
2021/11/25 07:25:44;;;;;;;21.17;14.47;;;7.80;86.10;;;;;;5043725;28;20218;-69
2021/11/25 07:28:11;;;;;;;22.40;15.17;;;7.80;86.30;;;;;;5042283;28;20289;-69
2021/11/25 07:30:38;;;;;;;26.60;15.93;;;7.80;86.20;;;;;;5042704;28;20222;-69
2021/11/25 07:33:05;;;;;;;19.23;15.00;;;7.80;86.00;;;;;;5041571;28;20234;-69
2021/11/25 07:35:32;;;;;;;21.23;15.13;;;7.80;86.00;;;;;;5041866;28;20612;-69
2021/11/25 07:38:00;;;;;;;18.93;13.80;;;7.90;86.10;;;;;;5056165;28;20221;-69
2021/11/25 07:40:27;;;;;;;18.57;14.33;;;7.80;85.90;;;;;;5036448;28;20245;-69
2021/11/25 07:42:54;;;;;;;22.80;14.90;;;7.80;86.70;;;;;;5038579;28;20265;-69
2021/11/25 07:45:26;;;;;;;21.93;14.90;;;7.80;86.40;;;;;;5038434;28;20317;-69
2021/11/25 07:47:53;;;;;;;18.53;14.37;;;7.80;86.60;;;;;;5044740;28;20242;-69
2021/11/25 07:50:21;;;;;;;17.67;14.03;;;7.80;86.80;;;;;;5052864;28;20214;-69
2021/11/25 07:52:49;;;;;;;20.20;14.00;;;7.80;87.00;;;;;;5052412;28;20219;-69
2021/11/25 07:55:19;;;;;;;19.83;14.40;;;7.80;86.80;;;;;;5036308;28;20211;-69
2021/11/25 07:57:48;;;;;;;20.13;14.07;;;7.80;86.60;;;;;;5042939;28;20221;-69
2021/11/25 08:00:22;;;;;;;19.93;14.57;;;7.80;86.40;;;;;;5047403;28;20611;-69
2021/11/25 08:02:49;;;;;;;18.30;14.70;;;7.80;86.60;;;;;;5046894;28;20297;-69
2021/11/25 08:05:17;;;;;;;22.83;15.47;;;7.80;86.60;;;;;;5036880;28;20666;-69
2021/11/25 08:07:45;;;;;;;19.30;14.40;;;7.90;86.60;;;;;;5037153;28;20242;-69
2021/11/25 08:10:13;;;;;;;20.73;14.73;;;7.90;86.80;;;;;;5052710;28;20225;-69
2021/11/25 08:12:42;;;;;;;28.97;14.23;;;7.90;86.90;;;;;;5036916;28;20227;-69
2021/11/25 08:15:09;;;;;;;24.40;15.20;;;7.90;86.80;;;;;;5037639;28;20237;-69
2021/11/25 08:17:37;;;;;;;18.57;14.37;;;7.90;86.90;;;;;;5045115;28;20703;-69
2021/11/25 08:20:05;;;;;;;23.03;16.13;;;7.80;87.60;;;;;;5039002;28;20562;-69
2021/11/25 08:22:32;;;;;;;23.47;15.53;;;7.80;87.10;;;;;;5039108;28;20819;-69
2021/11/25 08:25:01;;;;;;;24.30;16.60;;;7.80;87.30;;;;;;5044956;28;20227;-69
2021/11/25 08:27:28;;;;;;;21.63;15.17;;;7.70;87.50;;;;;;5040353;28;20236;-69
2021/11/25 08:29:55;;;;;;;33.57;16.47;;;7.70;87.70;;;;;;5041214;28;20238;-69
2021/11/25 08:32:22;;;;;;;28.37;15.47;;;7.70;87.80;;;;;;5047149;28;20219;-69
2021/11/25 08:34:50;;;;;;;26.13;16.07;;;7.70;88.00;;;;;;5042380;28;20207;-69
2021/11/25 08:37:17;;;;;;;24.23;16.33;;;7.70;88.30;;;;;;5040191;28;20210;-69
2021/11/25 08:39:47;;;;;;;20.17;14.93;;;7.70;88.50;;;;;;5048079;28;20219;-69
2021/11/25 08:42:14;;;;;;;21.60;15.20;;;7.70;88.70;;;;;;5045506;28;20673;-69
2021/11/25 08:44:42;;;;;;;19.53;16.33;;;7.60;88.80;;;;;;5044472;28;20232;-69
2021/11/25 08:47:09;;;;;;;22.80;17.20;;;7.60;89.40;;;;;;5045004;28;20316;-69
2021/11/25 08:49:36;;;;;;;23.10;16.03;;;7.60;89.70;;;;;;5045634;28;20234;-69
2021/11/25 08:52:05;;;;;;;20.40;14.27;;;7.60;90.10;;;;;;5043934;28;20563;-69
2021/11/25 08:54:32;;;;;;;17.87;12.63;;;7.60;90.30;;;;;;5044413;28;20247;-69
2021/11/25 08:56:59;;;;;;;17.33;12.70;;;7.60;90.30;;;;;;5040004;28;20203;-69
2021/11/25 08:59:26;;;;;;;18.40;13.57;;;7.60;90.00;;;;;;5039782;28;20223;-69
2021/11/25 09:01:54;;;;;;;17.80;13.17;;;7.60;89.30;;;;;;5038840;28;20219;-69
2021/11/25 09:04:21;;;;;;;17.27;12.73;;;7.50;89.50;;;;;;5040277;28;20704;-69
2021/11/25 09:06:48;;;;;;;18.17;12.80;;;7.60;88.80;;;;;;5040573;28;20244;-69
2021/11/25 09:09:16;;;;;;;17.57;11.90;;;7.50;88.00;;;;;;5033330;28;20721;-69
2021/11/25 09:11:43;;;;;;;19.87;12.67;;;7.50;88.20;;;;;;5035166;28;20699;-69
2021/11/25 09:14:10;;;;;;;19.43;12.47;;;7.50;88.40;;;;;;5014334;28;20212;-69
2021/11/25 09:16:37;;;;;;;19.70;13.70;;;7.50;88.60;;;;;;5057975;28;20225;-69
2021/11/25 09:19:05;;;;;;;18.23;12.13;;;7.50;88.80;;;;;;5034874;28;20286;-69
2021/11/25 09:21:32;;;;;;;18.30;12.53;;;7.50;88.90;;;;;;5031849;28;20250;-69
2021/11/25 09:24:04;;;;;;;16.37;11.80;;;7.50;88.70;;;;;;5042378;28;20593;-67
2021/11/25 09:26:33;;;;;;;15.67;11.97;;;7.60;88.50;;;;;;5040611;28;20214;-68
2021/11/25 09:29:06;;;;;;;18.93;12.50;;;7.60;88.50;;;;;;5031052;28;20239;-68
2021/11/25 09:31:35;;;;;;;16.23;10.83;;;7.60;88.70;;;;;;5027352;28;20584;-68
2021/11/25 09:34:04;;;;;;;17.23;11.47;;;7.60;88.60;;;;;;5039242;28;20233;-68
2021/11/25 09:36:31;;;;;;;15.30;11.93;;;7.60;88.40;;;;;;5039036;28;20222;-68
2021/11/25 09:38:59;;;;;;;16.13;12.07;;;7.70;88.80;;;;;;5040532;28;20223;-68
2021/11/25 09:41:27;;;;;;;17.77;11.93;;;7.70;89.10;;;;;;5037360;28;20234;-68
2021/11/25 09:43:54;;;;;;;17.00;11.97;;;7.80;89.50;;;;;;5016221;28;20235;-68
2021/11/25 09:46:25;;;;;;;19.70;12.27;;;7.80;89.80;;;;;;5037109;28;20215;-68
2021/11/25 09:48:56;;;;;;;16.97;11.97;;;7.90;90.00;;;;;;5052183;28;20226;-68
2021/11/25 09:51:25;;;;;;;18.90;13.23;;;7.90;90.10;;;;;;5034852;28;20219;-68
2021/11/25 09:53:53;;;;;;;19.67;12.87;;;8.00;90.20;;;;;;5046620;28;20214;-68
2021/11/25 09:56:22;;;;;;;16.83;11.17;;;8.10;90.30;;;;;;5035637;28;20416;-68
2021/11/25 09:58:51;;;;;;;16.57;12.07;;;8.10;90.40;;;;;;5038271;28;20711;-68
2021/11/25 10:01:21;;;;;;;16.00;12.73;;;8.20;90.30;;;;;;5036987;28;20218;-68
2021/11/25 10:03:50;;;;;;;16.43;12.33;;;8.20;90.30;;;;;;5038643;28;20260;-68
2021/11/25 10:06:18;;;;;;;18.30;12.83;;;8.30;90.30;;;;;;5043042;28;20219;-68
2021/11/25 10:08:49;;;;;;;17.90;12.77;;;8.30;90.40;;;;;;5042601;28;20242;-68
2021/11/25 10:11:23;;;;;;;16.57;12.40;;;8.30;90.30;;;;;;5040112;28;20218;-68
2021/11/25 10:14:05;;;;;;;18.80;13.40;;;8.30;90.30;;;;;;5039454;28;20631;-68
2021/11/25 10:16:47;;;;;;;17.37;11.73;;;8.40;90.30;;;;;;5036922;28;20210;-68
2021/11/25 10:19:17;;;;;;;18.40;12.57;;;8.30;90.20;;;;;;5040682;28;20657;-68
2021/11/25 10:21:53;;;;;;;15.17;12.30;;;8.30;90.20;;;;;;5036809;28;20207;-68
2021/11/25 10:24:31;;;;;;;16.17;12.03;;;8.30;90.10;;;;;;5036507;28;20276;-68
2021/11/25 10:27:27;;;;;;;16.97;12.30;;;8.30;90.00;;;;;;5020585;28;20215;-68
2021/11/25 10:30:16;;;;;;;18.60;14.90;;;8.30;90.00;;;;;;5041630;28;20238;-69
2021/11/25 10:33:03;;;;;;;20.77;15.00;;;8.30;90.10;;;;;;5042232;28;20213;-69
2021/11/25 10:40:45;;;;;;;21.53;16.23;;;8.30;90.50;;;;;;5043213;28;20209;-69
2021/11/25 10:43:23;;;;;;;23.57;17.03;;;8.30;90.70;;;;;;5040829;28;20211;-69
2021/11/25 10:45:54;;;;;;;20.93;16.50;;;8.30;90.80;;;;;;5035964;28;20238;-68
2021/11/25 10:48:39;;;;;;;24.00;17.23;;;8.30;90.90;;;;;;5045328;28;20709;-68
2021/11/25 10:51:30;;;;;;;20.70;15.37;;;8.30;91.00;;;;;;5030083;28;20233;-68
2021/11/25 10:54:10;;;;;;;21.20;14.80;;;8.30;91.00;;;;;;5043838;28;20623;-68
2021/11/25 10:56:44;;;;;;;24.30;17.00;;;8.40;91.10;;;;;;5051703;28;20209;-68
2021/11/25 10:59:14;;;;;;;23.83;15.57;;;8.40;91.10;;;;;;5035985;28;20700;-68
2021/11/25 11:01:47;;;;;;;20.17;15.27;;;8.40;91.10;;;;;;5038083;28;20230;-68
2021/11/25 11:04:16;;;;;;;20.47;17.00;;;8.40;91.20;;;;;;5047297;28;20279;-69
2021/11/25 11:06:53;;;;;;;21.20;15.53;;;8.40;91.10;;;;;;5059746;28;20267;-69
2021/11/25 11:09:30;;;;;;;25.97;15.50;;;8.50;91.10;;;;;;5037348;28;20284;-68
2021/11/25 11:12:46;;;;;;;22.93;16.53;;;8.40;91.10;;;;;;5049431;28;20545;-68
2021/11/25 11:20:48;;;;;;;19.43;14.60;;;8.40;91.20;;;;;;5032199;28;20211;-68
2021/11/25 11:23:22;;;;;;;22.83;14.67;;;8.40;91.20;;;;;;5043839;28;20616;-68
2021/11/25 11:25:54;;;;;;;20.67;15.50;;;8.40;91.30;;;;;;5043128;28;20815;-69
2021/11/25 11:28:21;;;;;;;19.80;15.90;;;8.40;91.30;;;;;;5040914;28;20218;-69
2021/11/25 11:30:49;;;;;;;20.33;14.80;;;8.50;91.40;;;;;;5043621;28;20326;-69
2021/11/25 11:33:17;;;;;;;20.10;14.73;;;8.40;91.50;;;;;;5043320;28;20230;-68
2021/11/25 11:35:45;;;;;;;18.20;14.27;;;8.40;91.40;;;;;;5038972;28;20215;-69
2021/11/25 11:38:13;;;;;;;19.27;13.40;;;8.50;91.40;;;;;;5039731;28;20218;-68
2021/11/25 11:40:43;;;;;;;18.73;13.63;;;8.40;91.00;;;;;;5039598;28;20210;-68
2021/11/25 11:43:12;;;;;;;25.47;16.13;;;8.40;90.90;;;;;;5044434;28;20214;-69
2021/11/25 11:45:40;;;;;;;22.63;14.73;;;8.30;91.00;;;;;;5046974;28;20440;-68
2021/11/25 11:48:12;;;;;;;19.03;13.53;;;8.30;91.10;;;;;;5042723;28;20222;-68
2021/11/25 11:50:48;;;;;;;21.40;15.10;;;8.30;91.20;;;;;;5057878;28;20252;-68
2021/11/25 11:53:18;;;;;;;20.70;14.43;;;8.30;91.40;;;;;;5048532;28;20552;-69
2021/11/25 11:55:48;;;;;;;18.87;14.50;;;8.20;91.30;;;;;;5046741;28;20306;-69
2021/11/25 11:58:30;;;;;;;21.03;14.60;;;8.20;91.50;;;;;;5035625;28;20207;-68
2021/11/25 12:01:17;;;;;;;22.47;15.70;;;8.20;91.60;;;;;;5040416;28;20317;-68
2021/11/25 12:03:58;;;;;;;28.63;15.07;;;8.20;91.70;;;;;;5049509;28;20245;-68
2021/11/25 12:06:50;;;;;;;20.87;15.27;;;8.20;91.80;;;;;;5041469;28;20224;-68
2021/11/25 12:09:23;;;;;;;23.00;14.80;;;8.20;91.50;;;;;;5038619;28;20246;-68
2021/11/25 12:11:52;;;;;;;20.40;13.90;;;8.20;91.40;;;;;;5051825;28;20301;-68
2021/11/25 12:14:25;;;;;;;21.30;13.77;;;8.20;91.40;;;;;;5067324;28;20587;-68
2021/11/25 12:16:55;;;;;;;20.13;12.53;;;8.30;91.40;;;;;;5037353;28;20203;-68
2021/11/25 12:19:26;;;;;;;17.63;13.67;;;8.30;91.30;;;;;;5035066;28;20210;-68
2021/11/25 12:21:56;;;;;;;18.87;12.30;;;8.40;90.90;;;;;;5035252;28;20229;-68
2021/11/25 12:24:27;;;;;;;17.80;13.73;;;8.40;90.50;;;;;;5033157;28;20219;-68
2021/11/25 12:27:34;;;;;;;20.63;13.27;;;8.40;90.30;;;;;;5035983;28;20221;-68
2021/11/25 12:30:05;;;;;;;20.13;13.30;;;8.40;90.20;;;;;;5045365;28;20352;-68
2021/11/25 12:35:26;;;;;;;15.93;11.13;;;8.40;88.40;;;;;;5043557;28;20285;-68
2021/11/25 12:38:01;;;;;;;18.90;11.10;;;8.40;88.60;;;;;;5037632;28;20217;-68
2021/11/25 12:40:46;;;;;;;17.27;9.90;;;8.40;87.60;;;;;;5037508;28;20215;-68
2021/11/25 12:43:26;;;;;;;15.03;10.23;;;8.40;87.50;;;;;;5039467;28;20232;-69
2021/11/25 12:46:03;;;;;;;18.17;11.50;;;8.40;88.10;;;;;;5039395;28;20542;-68
2021/11/25 12:48:40;;;;;;;15.00;10.47;;;8.40;87.90;;;;;;5022815;28;20223;-68
2021/11/25 12:51:10;;;;;;;13.33;9.33;;;8.40;87.60;;;;;;5046544;28;20257;-69
2021/11/25 12:54:00;;;;;;;15.73;10.83;;;8.50;87.30;;;;;;5044122;28;20219;-69
2021/11/25 12:56:38;;;;;;;19.17;10.90;;;8.50;87.30;;;;;;5060048;28;20218;-68
2021/11/25 12:59:08;;;;;;;16.20;11.00;;;8.50;87.60;;;;;;5041213;28;20661;-68
2021/11/25 13:01:46;;;;;;;17.03;11.73;;;8.50;87.90;;;;;;5049826;28;20276;-68
2021/11/25 13:04:18;;;;;;;17.97;11.83;;;8.60;88.30;;;;;;5049715;28;20217;-68